sensor_id;sensor_type;location;lat;lon;timestamp;pressure;altitude;pressure_sealevel;temperature;humidity
12349;BME280;5974;42.710;27.258;2024-01-16T00:00:34;98716.44;;;2.96;100.00
12349;BME280;5974;42.710;27.258;2024-01-16T00:03:00;98723.09;;;3.03;100.00
12349;BME280;5974;42.710;27.258;2024-01-16T00:05:27;98726.41;;;2.81;100.00
12349;BME280;5974;42.710;27.258;2024-01-16T00:07:54;98724.75;;;3.06;100.00
12349;BME280;5974;42.710;27.258;2024-01-16T00:10:21;98721.53;;;3.24;100.00
12349;BME280;5974;42.710;27.258;2024-01-16T00:12:47;98731.88;;;3.24;100.00
12349;BME280;5974;42.710;27.258;2024-01-16T00:15:16;98726.47;;;3.32;100.00
12349;BME280;5974;42.710;27.258;2024-01-16T00:17:42;98725.72;;;3.53;100.00
12349;BME280;5974;42.710;27.258;2024-01-16T00:20:10;98716.56;;;3.44;100.00
12349;BME280;5974;42.710;27.258;2024-01-16T00:22:37;98710.44;;;3.22;100.00
12349;BME280;5974;42.710;27.258;2024-01-16T00:25:04;98712.69;;;3.80;100.00
12349;BME280;5974;42.710;27.258;2024-01-16T00:27:31;98706.88;;;3.74;100.00
12349;BME280;5974;42.710;27.258;2024-01-16T00:29:58;98703.34;;;3.76;100.00
12349;BME280;5974;42.710;27.258;2024-01-16T00:32:26;98706.56;;;3.09;100.00
12349;BME280;5974;42.710;27.258;2024-01-16T00:34:53;98693.28;;;3.69;100.00
12349;BME280;5974;42.710;27.258;2024-01-16T00:37:20;98690.31;;;3.79;100.00
12349;BME280;5974;42.710;27.258;2024-01-16T00:39:47;98689.78;;;3.47;100.00
12349;BME280;5974;42.710;27.258;2024-01-16T00:42:13;98695.47;;;3.79;100.00
12349;BME280;5974;42.710;27.258;2024-01-16T00:44:40;98696.06;;;4.09;100.00
12349;BME280;5974;42.710;27.258;2024-01-16T00:47:07;98698.06;;;4.03;100.00
12349;BME280;5974;42.710;27.258;2024-01-16T00:49:36;98702.03;;;3.65;100.00
12349;BME280;5974;42.710;27.258;2024-01-16T00:52:04;98700.75;;;3.28;100.00
12349;BME280;5974;42.710;27.258;2024-01-16T00:54:32;98705.59;;;3.38;100.00
12349;BME280;5974;42.710;27.258;2024-01-16T00:56:59;98706.91;;;3.49;100.00
12349;BME280;5974;42.710;27.258;2024-01-16T00:59:25;98706.16;;;3.46;100.00
12349;BME280;5974;42.710;27.258;2024-01-16T01:01:52;98696.91;;;3.14;100.00
12349;BME280;5974;42.710;27.258;2024-01-16T01:04:19;98701.72;;;3.00;100.00
12349;BME280;5974;42.710;27.258;2024-01-16T01:06:47;98694.75;;;3.02;100.00
12349;BME280;5974;42.710;27.258;2024-01-16T01:09:14;98698.00;;;2.82;100.00
12349;BME280;5974;42.710;27.258;2024-01-16T01:11:41;98697.84;;;3.62;100.00
12349;BME280;5974;42.710;27.258;2024-01-16T01:14:08;98688.56;;;3.80;100.00
12349;BME280;5974;42.710;27.258;2024-01-16T01:16:35;98696.59;;;3.96;100.00
12349;BME280;5974;42.710;27.258;2024-01-16T01:19:01;98707.22;;;3.65;100.00
12349;BME280;5974;42.710;27.258;2024-01-16T01:21:28;98701.22;;;2.89;100.00
12349;BME280;5974;42.710;27.258;2024-01-16T01:23:56;98701.72;;;3.00;100.00
12349;BME280;5974;42.710;27.258;2024-01-16T01:26:23;98694.41;;;3.62;100.00
12349;BME280;5974;42.710;27.258;2024-01-16T01:28:50;98692.22;;;3.98;100.00
12349;BME280;5974;42.710;27.258;2024-01-16T01:31:17;98686.22;;;4.19;100.00
12349;BME280;5974;42.710;27.258;2024-01-16T01:33:44;98686.69;;;4.30;100.00
12349;BME280;5974;42.710;27.258;2024-01-16T01:36:11;98686.28;;;3.96;100.00
12349;BME280;5974;42.710;27.258;2024-01-16T01:38:37;98688.84;;;3.96;100.00
12349;BME280;5974;42.710;27.258;2024-01-16T01:41:05;98676.03;;;3.69;100.00
12349;BME280;5974;42.710;27.258;2024-01-16T01:43:32;98670.81;;;3.71;100.00
12349;BME280;5974;42.710;27.258;2024-01-16T01:46:10;98657.75;;;3.51;100.00
12349;BME280;5974;42.710;27.258;2024-01-16T01:48:40;98666.31;;;3.99;100.00
12349;BME280;5974;42.710;27.258;2024-01-16T01:51:07;98659.00;;;4.10;100.00
12349;BME280;5974;42.710;27.258;2024-01-16T01:53:34;98658.72;;;3.95;100.00
12349;BME280;5974;42.710;27.258;2024-01-16T01:56:04;98653.50;;;3.96;100.00
12349;BME280;5974;42.710;27.258;2024-01-16T01:58:34;98653.78;;;4.33;100.00
12349;BME280;5974;42.710;27.258;2024-01-16T02:01:01;98638.63;;;3.79;100.00
12349;BME280;5974;42.710;27.258;2024-01-16T02:03:29;98668.13;;;4.19;100.00
12349;BME280;5974;42.710;27.258;2024-01-16T02:05:57;98660.59;;;4.36;100.00
12349;BME280;5974;42.710;27.258;2024-01-16T02:08:25;98656.66;;;3.81;100.00
12349;BME280;5974;42.710;27.258;2024-01-16T02:10:51;98662.69;;;4.03;100.00
12349;BME280;5974;42.710;27.258;2024-01-16T02:13:19;98651.69;;;3.98;100.00
12349;BME280;5974;42.710;27.258;2024-01-16T02:15:50;98659.47;;;4.20;100.00
12349;BME280;5974;42.710;27.258;2024-01-16T02:18:16;98654.91;;;4.26;100.00
12349;BME280;5974;42.710;27.258;2024-01-16T02:20:43;98662.19;;;4.60;100.00
12349;BME280;5974;42.710;27.258;2024-01-16T02:23:13;98663.94;;;4.60;100.00
12349;BME280;5974;42.710;27.258;2024-01-16T02:25:42;98652.72;;;4.81;100.00
12349;BME280;5974;42.710;27.258;2024-01-16T02:28:09;98645.53;;;4.87;100.00
12349;BME280;5974;42.710;27.258;2024-01-16T02:30:35;98647.22;;;5.09;100.00
12349;BME280;5974;42.710;27.258;2024-01-16T02:33:02;98642.75;;;4.50;100.00
12349;BME280;5974;42.710;27.258;2024-01-16T02:35:30;98641.78;;;4.09;100.00
12349;BME280;5974;42.710;27.258;2024-01-16T02:37:55;98630.56;;;4.74;100.00
12349;BME280;5974;42.710;27.258;2024-01-16T02:40:22;98639.59;;;5.06;100.00
12349;BME280;5974;42.710;27.258;2024-01-16T02:42:50;98640.09;;;5.34;100.00
12349;BME280;5974;42.710;27.258;2024-01-16T02:45:17;98640.94;;;5.34;100.00
12349;BME280;5974;42.710;27.258;2024-01-16T02:47:44;98627.28;;;4.70;100.00
12349;BME280;5974;42.710;27.258;2024-01-16T02:50:11;98622.81;;;5.14;100.00
12349;BME280;5974;42.710;27.258;2024-01-16T02:52:38;98644.53;;;5.32;100.00
12349;BME280;5974;42.710;27.258;2024-01-16T02:55:06;98644.50;;;4.28;100.00
12349;BME280;5974;42.710;27.258;2024-01-16T02:57:33;98645.06;;;3.91;100.00
12349;BME280;5974;42.710;27.258;2024-01-16T03:00:01;98656.25;;;3.92;100.00
12349;BME280;5974;42.710;27.258;2024-01-16T03:02:28;98651.38;;;4.29;100.00
12349;BME280;5974;42.710;27.258;2024-01-16T03:04:55;98656.44;;;3.87;100.00
12349;BME280;5974;42.710;27.258;2024-01-16T03:07:22;98663.47;;;3.83;100.00
12349;BME280;5974;42.710;27.258;2024-01-16T03:09:49;98665.91;;;4.53;100.00
12349;BME280;5974;42.710;27.258;2024-01-16T03:12:15;98676.47;;;4.27;100.00
12349;BME280;5974;42.710;27.258;2024-01-16T03:14:42;98668.63;;;4.72;100.00
12349;BME280;5974;42.710;27.258;2024-01-16T03:17:11;98670.09;;;4.35;100.00
12349;BME280;5974;42.710;27.258;2024-01-16T03:19:38;98681.63;;;4.27;100.00
12349;BME280;5974;42.710;27.258;2024-01-16T03:22:05;98670.53;;;4.02;100.00
12349;BME280;5974;42.710;27.258;2024-01-16T03:24:31;98679.81;;;4.29;100.00
12349;BME280;5974;42.710;27.258;2024-01-16T03:26:58;98680.41;;;4.79;100.00
12349;BME280;5974;42.710;27.258;2024-01-16T03:29:26;98677.13;;;4.96;100.00
12349;BME280;5974;42.710;27.258;2024-01-16T03:31:53;98672.50;;;5.04;100.00
12349;BME280;5974;42.710;27.258;2024-01-16T03:34:21;98644.81;;;4.42;100.00
12349;BME280;5974;42.710;27.258;2024-01-16T03:36:48;98679.34;;;4.63;100.00
12349;BME280;5974;42.710;27.258;2024-01-16T03:39:14;98678.13;;;4.28;100.00
12349;BME280;5974;42.710;27.258;2024-01-16T03:41:41;98679.41;;;5.03;100.00
12349;BME280;5974;42.710;27.258;2024-01-16T03:44:08;98675.84;;;4.85;100.00
12349;BME280;5974;42.710;27.258;2024-01-16T03:46:35;98690.81;;;4.77;100.00
12349;BME280;5974;42.710;27.258;2024-01-16T03:49:02;98686.56;;;4.76;100.00
12349;BME280;5974;42.710;27.258;2024-01-16T03:51:30;98683.06;;;4.77;100.00
12349;BME280;5974;42.710;27.258;2024-01-16T03:53:57;98695.13;;;4.99;100.00
12349;BME280;5974;42.710;27.258;2024-01-16T03:56:23;98705.47;;;4.78;100.00
12349;BME280;5974;42.710;27.258;2024-01-16T03:58:50;98716.09;;;4.49;100.00
12349;BME280;5974;42.710;27.258;2024-01-16T04:01:17;98713.50;;;4.49;100.00
12349;BME280;5974;42.710;27.258;2024-01-16T04:03:44;98718.34;;;4.58;100.00
12349;BME280;5974;42.710;27.258;2024-01-16T04:06:17;98729.41;;;4.62;100.00
12349;BME280;5974;42.710;27.258;2024-01-16T04:08:45;98721.34;;;4.48;100.00
12349;BME280;5974;42.710;27.258;2024-01-16T04:11:12;98714.47;;;4.47;100.00
12349;BME280;5974;42.710;27.258;2024-01-16T04:13:39;98721.41;;;4.68;100.00
12349;BME280;5974;42.710;27.258;2024-01-16T04:16:06;98737.13;;;5.27;100.00
12349;BME280;5974;42.710;27.258;2024-01-16T04:18:35;98741.03;;;5.17;100.00
12349;BME280;5974;42.710;27.258;2024-01-16T04:21:02;98738.13;;;5.03;100.00
12349;BME280;5974;42.710;27.258;2024-01-16T04:23:29;98755.16;;;5.08;100.00
12349;BME280;5974;42.710;27.258;2024-01-16T04:25:58;98757.09;;;5.65;100.00
12349;BME280;5974;42.710;27.258;2024-01-16T04:28:25;98767.88;;;5.56;100.00
12349;BME280;5974;42.710;27.258;2024-01-16T04:30:52;98765.81;;;5.22;100.00
12349;BME280;5974;42.710;27.258;2024-01-16T04:33:18;98769.16;;;5.04;100.00
12349;BME280;5974;42.710;27.258;2024-01-16T04:35:45;98763.78;;;5.09;100.00
12349;BME280;5974;42.710;27.258;2024-01-16T04:38:12;98763.06;;;5.05;100.00
12349;BME280;5974;42.710;27.258;2024-01-16T04:40:39;98763.50;;;5.36;100.00
12349;BME280;5974;42.710;27.258;2024-01-16T04:43:07;98779.81;;;5.38;100.00
12349;BME280;5974;42.710;27.258;2024-01-16T04:45:34;98784.56;;;5.07;100.00
12349;BME280;5974;42.710;27.258;2024-01-16T04:48:00;98784.56;;;5.49;100.00
12349;BME280;5974;42.710;27.258;2024-01-16T04:50:28;98785.50;;;5.88;100.00
12349;BME280;5974;42.710;27.258;2024-01-16T04:52:57;98789.25;;;6.02;100.00
12349;BME280;5974;42.710;27.258;2024-01-16T04:55:25;98788.22;;;5.65;100.00
12349;BME280;5974;42.710;27.258;2024-01-16T04:57:52;98795.41;;;4.95;100.00
12349;BME280;5974;42.710;27.258;2024-01-16T05:00:20;98796.97;;;4.99;100.00
12349;BME280;5974;42.710;27.258;2024-01-16T05:02:47;98803.94;;;5.61;100.00
12349;BME280;5974;42.710;27.258;2024-01-16T05:05:14;98807.50;;;5.38;100.00
12349;BME280;5974;42.710;27.258;2024-01-16T05:07:41;98798.91;;;5.98;100.00
12349;BME280;5974;42.710;27.258;2024-01-16T05:10:09;98808.88;;;6.27;100.00
12349;BME280;5974;42.710;27.258;2024-01-16T05:12:37;98820.66;;;5.95;100.00
12349;BME280;5974;42.710;27.258;2024-01-16T05:15:05;98822.03;;;6.23;100.00
12349;BME280;5974;42.710;27.258;2024-01-16T05:17:33;98840.88;;;6.46;100.00
12349;BME280;5974;42.710;27.258;2024-01-16T05:20:03;98832.31;;;6.44;100.00
12349;BME280;5974;42.710;27.258;2024-01-16T05:22:30;98838.91;;;6.33;100.00
12349;BME280;5974;42.710;27.258;2024-01-16T05:24:58;98845.63;;;6.37;100.00
12349;BME280;5974;42.710;27.258;2024-01-16T05:27:25;98857.25;;;6.48;100.00
12349;BME280;5974;42.710;27.258;2024-01-16T05:29:52;98852.06;;;6.67;100.00
12349;BME280;5974;42.710;27.258;2024-01-16T05:32:18;98865.66;;;6.53;100.00
12349;BME280;5974;42.710;27.258;2024-01-16T05:34:46;98866.25;;;6.40;100.00
12349;BME280;5974;42.710;27.258;2024-01-16T05:37:13;98867.94;;;6.61;100.00
12349;BME280;5974;42.710;27.258;2024-01-16T05:39:40;98872.13;;;6.05;100.00
12349;BME280;5974;42.710;27.258;2024-01-16T05:42:07;98870.56;;;5.59;100.00
12349;BME280;5974;42.710;27.258;2024-01-16T05:44:33;98884.66;;;5.73;100.00
12349;BME280;5974;42.710;27.258;2024-01-16T05:47:00;98890.22;;;5.64;100.00
12349;BME280;5974;42.710;27.258;2024-01-16T05:49:27;98902.44;;;5.61;100.00
12349;BME280;5974;42.710;27.258;2024-01-16T05:51:55;98906.50;;;5.89;100.00
12349;BME280;5974;42.710;27.258;2024-01-16T05:54:22;98906.75;;;6.04;100.00
12349;BME280;5974;42.710;27.258;2024-01-16T05:56:49;98915.84;;;6.54;100.00
12349;BME280;5974;42.710;27.258;2024-01-16T05:59:16;98917.50;;;6.75;100.00
12349;BME280;5974;42.710;27.258;2024-01-16T06:01:43;98926.06;;;6.96;100.00
12349;BME280;5974;42.710;27.258;2024-01-16T06:04:10;98936.59;;;7.85;100.00
12349;BME280;5974;42.710;27.258;2024-01-16T06:06:37;98927.44;;;8.46;100.00
12349;BME280;5974;42.710;27.258;2024-01-16T06:09:05;98931.53;;;8.67;100.00
12349;BME280;5974;42.710;27.258;2024-01-16T06:11:32;98944.94;;;8.77;100.00
12349;BME280;5974;42.710;27.258;2024-01-16T06:14:00;98962.06;;;8.83;100.00
12349;BME280;5974;42.710;27.258;2024-01-16T06:16:27;98973.78;;;9.07;100.00
12349;BME280;5974;42.710;27.258;2024-01-16T06:18:54;98975.28;;;9.11;100.00
12349;BME280;5974;42.710;27.258;2024-01-16T06:21:22;98972.78;;;9.09;100.00
12349;BME280;5974;42.710;27.258;2024-01-16T06:23:48;98972.13;;;9.21;100.00
12349;BME280;5974;42.710;27.258;2024-01-16T06:26:16;98976.34;;;9.24;100.00
12349;BME280;5974;42.710;27.258;2024-01-16T06:28:43;98974.66;;;9.70;100.00
12349;BME280;5974;42.710;27.258;2024-01-16T06:31:10;98975.84;;;9.80;100.00
12349;BME280;5974;42.710;27.258;2024-01-16T06:33:38;98976.53;;;9.68;100.00
12349;BME280;5974;42.710;27.258;2024-01-16T06:36:05;98999.91;;;9.54;100.00
12349;BME280;5974;42.710;27.258;2024-01-16T06:38:32;99000.25;;;9.48;100.00
12349;BME280;5974;42.710;27.258;2024-01-16T06:40:59;99008.84;;;9.50;100.00
12349;BME280;5974;42.710;27.258;2024-01-16T06:43:27;99009.50;;;9.38;100.00
12349;BME280;5974;42.710;27.258;2024-01-16T06:45:54;99008.50;;;9.40;100.00
12349;BME280;5974;42.710;27.258;2024-01-16T06:48:21;99004.97;;;9.41;100.00
12349;BME280;5974;42.710;27.258;2024-01-16T06:50:47;99015.72;;;9.19;100.00
12349;BME280;5974;42.710;27.258;2024-01-16T06:53:14;99015.56;;;9.05;100.00
12349;BME280;5974;42.710;27.258;2024-01-16T06:55:41;99032.03;;;9.39;100.00
12349;BME280;5974;42.710;27.258;2024-01-16T06:58:07;99035.09;;;9.14;100.00
12349;BME280;5974;42.710;27.258;2024-01-16T07:00:36;99041.34;;;8.94;100.00
12349;BME280;5974;42.710;27.258;2024-01-16T07:03:03;99058.75;;;8.59;100.00
12349;BME280;5974;42.710;27.258;2024-01-16T07:05:30;99071.22;;;8.53;100.00
12349;BME280;5974;42.710;27.258;2024-01-16T07:07:57;99080.53;;;8.76;100.00
12349;BME280;5974;42.710;27.258;2024-01-16T07:10:24;99078.06;;;8.90;100.00
12349;BME280;5974;42.710;27.258;2024-01-16T07:12:51;99095.00;;;8.81;100.00
12349;BME280;5974;42.710;27.258;2024-01-16T07:15:19;99090.47;;;9.02;100.00
12349;BME280;5974;42.710;27.258;2024-01-16T07:17:47;99100.91;;;9.02;100.00
12349;BME280;5974;42.710;27.258;2024-01-16T07:20:14;99120.72;;;8.89;100.00
12349;BME280;5974;42.710;27.258;2024-01-16T07:22:40;99122.81;;;8.63;100.00
12349;BME280;5974;42.710;27.258;2024-01-16T07:25:07;99132.09;;;8.86;100.00
12349;BME280;5974;42.710;27.258;2024-01-16T07:27:34;99138.50;;;8.62;100.00
12349;BME280;5974;42.710;27.258;2024-01-16T07:30:01;99138.50;;;8.62;100.00
12349;BME280;5974;42.710;27.258;2024-01-16T07:32:31;99149.38;;;8.53;100.00
12349;BME280;5974;42.710;27.258;2024-01-16T07:34:59;99158.16;;;8.69;100.00
12349;BME280;5974;42.710;27.258;2024-01-16T07:37:26;99157.53;;;8.64;100.00
12349;BME280;5974;42.710;27.258;2024-01-16T07:39:53;99155.41;;;8.72;100.00
12349;BME280;5974;42.710;27.258;2024-01-16T07:42:20;99161.22;;;8.77;100.00
12349;BME280;5974;42.710;27.258;2024-01-16T07:44:46;99167.81;;;8.67;100.00
12349;BME280;5974;42.710;27.258;2024-01-16T07:47:13;99179.88;;;8.51;100.00
12349;BME280;5974;42.710;27.258;2024-01-16T07:49:40;99189.31;;;8.53;100.00
12349;BME280;5974;42.710;27.258;2024-01-16T07:52:08;99191.28;;;8.48;100.00
12349;BME280;5974;42.710;27.258;2024-01-16T07:54:35;99203.88;;;8.39;100.00
12349;BME280;5974;42.710;27.258;2024-01-16T07:57:02;99212.47;;;8.41;100.00
12349;BME280;5974;42.710;27.258;2024-01-16T07:59:29;99219.38;;;8.42;100.00
12349;BME280;5974;42.710;27.258;2024-01-16T08:01:56;99218.06;;;8.88;100.00
12349;BME280;5974;42.710;27.258;2024-01-16T08:04:22;99233.34;;;9.12;100.00
12349;BME280;5974;42.710;27.258;2024-01-16T08:06:50;99241.13;;;8.95;100.00
12349;BME280;5974;42.710;27.258;2024-01-16T08:09:18;99251.25;;;9.01;100.00
12349;BME280;5974;42.710;27.258;2024-01-16T08:11:45;99241.19;;;9.30;100.00
12349;BME280;5974;42.710;27.258;2024-01-16T08:14:12;99255.06;;;9.30;100.00
12349;BME280;5974;42.710;27.258;2024-01-16T08:16:39;99256.41;;;9.03;100.00
12349;BME280;5974;42.710;27.258;2024-01-16T08:19:06;99263.63;;;8.98;100.00
12349;BME280;5974;42.710;27.258;2024-01-16T08:21:33;99275.00;;;8.95;100.00
12349;BME280;5974;42.710;27.258;2024-01-16T08:23:59;99277.69;;;9.12;100.00
12349;BME280;5974;42.710;27.258;2024-01-16T08:26:27;99283.13;;;8.89;100.00
12349;BME280;5974;42.710;27.258;2024-01-16T08:28:55;99286.19;;;9.16;100.00
12349;BME280;5974;42.710;27.258;2024-01-16T08:31:22;99285.09;;;8.84;100.00
12349;BME280;5974;42.710;27.258;2024-01-16T08:33:48;99293.38;;;9.11;100.00
12349;BME280;5974;42.710;27.258;2024-01-16T08:36:15;99297.44;;;9.69;100.00
12349;BME280;5974;42.710;27.258;2024-01-16T08:38:42;99317.16;;;9.41;100.00
12349;BME280;5974;42.710;27.258;2024-01-16T08:41:08;99305.47;;;8.76;100.00
12349;BME280;5974;42.710;27.258;2024-01-16T08:43:37;99305.75;;;9.07;100.00
12349;BME280;5974;42.710;27.258;2024-01-16T08:46:03;99308.34;;;9.07;100.00
12349;BME280;5974;42.710;27.258;2024-01-16T08:48:30;99333.34;;;8.74;100.00
12349;BME280;5974;42.710;27.258;2024-01-16T08:50:57;99337.38;;;8.62;100.00
12349;BME280;5974;42.710;27.258;2024-01-16T08:53:24;99350.47;;;8.61;100.00
12349;BME280;5974;42.710;27.258;2024-01-16T08:55:51;99368.94;;;8.75;100.00
12349;BME280;5974;42.710;27.258;2024-01-16T08:58:17;99369.84;;;9.11;100.00
12349;BME280;5974;42.710;27.258;2024-01-16T09:00:46;99368.38;;;9.42;97.91
12349;BME280;5974;42.710;27.258;2024-01-16T09:03:12;99385.00;;;9.03;99.82
12349;BME280;5974;42.710;27.258;2024-01-16T09:05:39;99393.88;;;8.99;95.51
12349;BME280;5974;42.710;27.258;2024-01-16T09:08:06;99388.78;;;8.78;91.87
12349;BME280;5974;42.710;27.258;2024-01-16T09:10:32;99401.78;;;8.98;92.70
12349;BME280;5974;42.710;27.258;2024-01-16T09:12:59;99400.13;;;9.14;93.31
12349;BME280;5974;42.710;27.258;2024-01-16T09:15:26;99409.00;;;9.83;89.66
12349;BME280;5974;42.710;27.258;2024-01-16T09:17:54;99408.84;;;10.03;86.56
12349;BME280;5974;42.710;27.258;2024-01-16T09:20:21;99412.31;;;9.51;87.47
12349;BME280;5974;42.710;27.258;2024-01-16T09:22:47;99417.06;;;9.43;86.11
12349;BME280;5974;42.710;27.258;2024-01-16T09:25:14;99414.84;;;8.78;88.32
12349;BME280;5974;42.710;27.258;2024-01-16T09:27:42;99420.75;;;8.62;86.32
12349;BME280;5974;42.710;27.258;2024-01-16T09:30:09;99438.66;;;8.70;83.86
12349;BME280;5974;42.710;27.258;2024-01-16T09:32:37;99441.78;;;8.58;84.45
12349;BME280;5974;42.710;27.258;2024-01-16T09:35:06;99437.63;;;8.54;85.16
12349;BME280;5974;42.710;27.258;2024-01-16T09:37:34;99432.91;;;8.82;83.91
12349;BME280;5974;42.710;27.258;2024-01-16T09:40:01;99438.78;;;8.47;86.28
12349;BME280;5974;42.710;27.258;2024-01-16T09:42:30;99436.28;;;8.84;83.84
12349;BME280;5974;42.710;27.258;2024-01-16T09:44:57;99439.97;;;9.17;81.80
12349;BME280;5974;42.710;27.258;2024-01-16T09:47:26;99437.03;;;9.25;80.58
12349;BME280;5974;42.710;27.258;2024-01-16T09:49:54;99430.44;;;8.59;79.00
12349;BME280;5974;42.710;27.258;2024-01-16T09:52:23;99453.56;;;8.46;79.18
12349;BME280;5974;42.710;27.258;2024-01-16T09:54:49;99449.28;;;8.45;80.00
12349;BME280;5974;42.710;27.258;2024-01-16T09:57:18;99454.25;;;8.90;78.20
12349;BME280;5974;42.710;27.258;2024-01-16T09:59:47;99450.47;;;8.77;76.86
12349;BME280;5974;42.710;27.258;2024-01-16T10:02:14;99447.75;;;8.80;75.19
12349;BME280;5974;42.710;27.258;2024-01-16T10:04:41;99444.00;;;8.67;75.64
12349;BME280;5974;42.710;27.258;2024-01-16T10:07:10;99440.84;;;8.79;75.33
12349;BME280;5974;42.710;27.258;2024-01-16T10:09:39;99432.47;;;8.73;75.03
12349;BME280;5974;42.710;27.258;2024-01-16T10:12:07;99445.78;;;8.85;73.62
12349;BME280;5974;42.710;27.258;2024-01-16T10:14:36;99456.09;;;8.68;72.92
12349;BME280;5974;42.710;27.258;2024-01-16T10:17:04;99447.03;;;9.15;71.88
12349;BME280;5974;42.710;27.258;2024-01-16T10:19:35;99432.06;;;9.00;70.51
12349;BME280;5974;42.710;27.258;2024-01-16T10:22:03;99434.75;;;9.36;69.44
12349;BME280;5974;42.710;27.258;2024-01-16T10:24:30;99436.03;;;9.09;70.28
12349;BME280;5974;42.710;27.258;2024-01-16T10:27:00;99451.38;;;9.34;69.81
12349;BME280;5974;42.710;27.258;2024-01-16T10:29:28;99451.72;;;9.45;68.50
12349;BME280;5974;42.710;27.258;2024-01-16T10:31:55;99438.34;;;9.34;68.11
12349;BME280;5974;42.710;27.258;2024-01-16T10:34:22;99461.41;;;9.78;67.51
12349;BME280;5974;42.710;27.258;2024-01-16T10:36:50;99442.06;;;9.65;66.32
12349;BME280;5974;42.710;27.258;2024-01-16T10:39:18;99453.38;;;9.83;65.46
12349;BME280;5974;42.710;27.258;2024-01-16T10:41:54;99446.44;;;9.65;65.53
12349;BME280;5974;42.710;27.258;2024-01-16T10:44:22;99470.22;;;9.59;65.01
12349;BME280;5974;42.710;27.258;2024-01-16T10:46:49;99464.75;;;9.82;65.18
12349;BME280;5974;42.710;27.258;2024-01-16T10:49:16;99436.47;;;9.73;65.03
12349;BME280;5974;42.710;27.258;2024-01-16T10:51:43;99467.34;;;9.82;64.32
12349;BME280;5974;42.710;27.258;2024-01-16T10:54:12;99460.97;;;9.88;63.71
12349;BME280;5974;42.710;27.258;2024-01-16T10:56:43;99447.47;;;9.97;64.19
12349;BME280;5974;42.710;27.258;2024-01-16T10:59:15;99450.94;;;10.33;65.11
12349;BME280;5974;42.710;27.258;2024-01-16T11:01:49;99445.53;;;10.70;62.60
12349;BME280;5974;42.710;27.258;2024-01-16T11:04:18;99439.25;;;10.23;62.05
12349;BME280;5974;42.710;27.258;2024-01-16T11:06:45;99440.50;;;9.97;62.88
12349;BME280;5974;42.710;27.258;2024-01-16T11:09:13;99437.34;;;10.26;63.62
12349;BME280;5974;42.710;27.258;2024-01-16T11:11:43;99444.84;;;10.32;63.42
12349;BME280;5974;42.710;27.258;2024-01-16T11:14:11;99445.63;;;10.17;63.22
12349;BME280;5974;42.710;27.258;2024-01-16T11:16:39;99444.72;;;10.36;63.73
12349;BME280;5974;42.710;27.258;2024-01-16T11:19:08;99459.00;;;10.28;62.34
12349;BME280;5974;42.710;27.258;2024-01-16T11:21:36;99457.31;;;10.45;62.79
12349;BME280;5974;42.710;27.258;2024-01-16T11:24:03;99471.06;;;10.14;60.52
12349;BME280;5974;42.710;27.258;2024-01-16T11:26:32;99467.53;;;10.15;60.78
12349;BME280;5974;42.710;27.258;2024-01-16T11:29:00;99476.88;;;10.19;60.77
12349;BME280;5974;42.710;27.258;2024-01-16T11:31:31;99473.34;;;10.20;60.22
12349;BME280;5974;42.710;27.258;2024-01-16T11:33:58;99477.97;;;10.32;59.88
12349;BME280;5974;42.710;27.258;2024-01-16T11:37:00;99490.34;;;10.28;60.25
12349;BME280;5974;42.710;27.258;2024-01-16T11:39:27;99501.72;;;10.62;60.38
12349;BME280;5974;42.710;27.258;2024-01-16T11:41:55;99514.41;;;10.35;60.41
12349;BME280;5974;42.710;27.258;2024-01-16T11:44:40;99520.81;;;9.92;60.37
12349;BME280;5974;42.710;27.258;2024-01-16T11:47:08;99516.72;;;10.05;60.33
12349;BME280;5974;42.710;27.258;2024-01-16T11:49:34;99509.66;;;10.07;60.05
12349;BME280;5974;42.710;27.258;2024-01-16T11:52:02;99514.00;;;10.25;59.70
12349;BME280;5974;42.710;27.258;2024-01-16T11:54:29;99527.06;;;10.25;59.86
12349;BME280;5974;42.710;27.258;2024-01-16T11:57:30;99525.72;;;9.62;58.91
12349;BME280;5974;42.710;27.258;2024-01-16T12:00:03;99535.72;;;9.53;60.16
12349;BME280;5974;42.710;27.258;2024-01-16T12:02:51;99541.28;;;9.82;60.94
12349;BME280;5974;42.710;27.258;2024-01-16T12:05:18;99538.59;;;10.03;60.28
12349;BME280;5974;42.710;27.258;2024-01-16T12:07:50;99537.25;;;9.75;61.25
12349;BME280;5974;42.710;27.258;2024-01-16T12:10:18;99547.38;;;9.83;60.95
12349;BME280;5974;42.710;27.258;2024-01-16T12:12:46;99565.06;;;9.58;61.46
12349;BME280;5974;42.710;27.258;2024-01-16T12:15:14;99549.81;;;9.49;61.75
12349;BME280;5974;42.710;27.258;2024-01-16T12:17:55;99562.56;;;9.36;62.48
12349;BME280;5974;42.710;27.258;2024-01-16T12:20:22;99582.44;;;9.00;62.54
12349;BME280;5974;42.710;27.258;2024-01-16T12:22:57;99589.91;;;9.27;63.40
12349;BME280;5974;42.710;27.258;2024-01-16T12:25:25;99586.34;;;9.10;63.62
12349;BME280;5974;42.710;27.258;2024-01-16T12:27:59;99576.59;;;8.95;63.39
12349;BME280;5974;42.710;27.258;2024-01-16T12:30:27;99599.25;;;8.93;63.35
12349;BME280;5974;42.710;27.258;2024-01-16T12:33:05;99580.31;;;8.67;63.41
12349;BME280;5974;42.710;27.258;2024-01-16T12:35:34;99608.38;;;8.83;64.08
12349;BME280;5974;42.710;27.258;2024-01-16T12:38:03;99617.75;;;8.87;64.59
12349;BME280;5974;42.710;27.258;2024-01-16T12:40:32;99632.22;;;8.94;64.48
12349;BME280;5974;42.710;27.258;2024-01-16T12:42:59;99639.63;;;9.04;64.71
12349;BME280;5974;42.710;27.258;2024-01-16T12:45:26;99646.31;;;9.30;64.26
12349;BME280;5974;42.710;27.258;2024-01-16T12:47:54;99648.91;;;9.30;63.74
12349;BME280;5974;42.710;27.258;2024-01-16T12:50:24;99651.78;;;9.04;63.88
12349;BME280;5974;42.710;27.258;2024-01-16T12:53:04;99653.16;;;8.70;64.64
12349;BME280;5974;42.710;27.258;2024-01-16T12:55:32;99672.97;;;8.53;65.31
12349;BME280;5974;42.710;27.258;2024-01-16T12:58:16;99686.97;;;8.50;65.92
12349;BME280;5974;42.710;27.258;2024-01-16T13:00:43;99681.91;;;8.47;66.38
12349;BME280;5974;42.710;27.258;2024-01-16T13:03:16;99693.47;;;8.62;66.49
12349;BME280;5974;42.710;27.258;2024-01-16T13:05:44;99707.09;;;8.90;66.15